Terminal Aerodrome Forecast
Issued by NWS

Home | Current Version | Previous Version | Text Only | Print | Product List | Glossary On
Versions: 1 2 3 4 5 6 7 8 9 10 11 12 13 14 15 16 17 18 19
000
FTUS44 KLZK 070500
TAFBPK
TAF
KBPK 070539Z 0706/0806 18005KT P6SM VCSH FEW030 BKN100 OVC250
     FM071000 19005KT P6SM VCSH SCT030 OVC100
      TEMPO 0710/0712 5SM -SHRA BR OVC035
     FM071200 23008G15KT P6SM VCTS BKN035CB OVC050
      TEMPO 0714/0718 4SM TSRA BR OVC025CB=

USA.gov is the U.S. government's official web portal to all federal, state and local government web resources and services.